Time;durP1;ratioP1;P1;durP2;ratioP2;P2;SDS_P1;SDS_P2;PMS_P1;PMS_P2;Temp;Humidity;BMP_temperature;BMP_pressure;BME280_temperature;BME280_humidity;BME280_pressure;Samples;Min_cycle;Max_cycle;Signal;HPM_P1;HPM_P2
2023/06/22 00:02:00;;;;;;;0.68;0.68;;;17.70;99.90;;;;;;4990856;28;20211;-72
2023/06/22 00:04:35;;;;;;;1.13;1.02;;;17.70;99.90;;;;;;4991060;28;20195;-71
2023/06/22 00:07:01;;;;;;;0.95;0.68;;;17.60;99.90;;;;;;4973805;28;20195;-71
2023/06/22 00:09:27;;;;;;;0.60;0.60;;;17.60;99.90;;;;;;4990945;28;20307;-72
2023/06/22 00:11:52;;;;;;;4.28;1.05;;;17.70;99.90;;;;;;4991192;28;20211;-72
2023/06/22 00:14:18;;;;;;;0.85;0.85;;;17.70;99.90;;;;;;4990848;28;20278;-71
2023/06/22 00:16:48;;;;;;;0.90;0.85;;;17.80;99.90;;;;;;4991205;28;20199;-71
2023/06/22 00:19:15;;;;;;;1.13;1.02;;;17.80;99.90;;;;;;4991057;28;20223;-72
2023/06/22 00:21:42;;;;;;;0.93;0.93;;;17.90;99.90;;;;;;4990740;28;20667;-74
2023/06/22 00:24:08;;;;;;;0.98;0.63;;;18.00;99.90;;;;;;4990865;28;20192;-74
2023/06/22 00:26:33;;;;;;;0.88;0.88;;;18.00;99.90;;;;;;4990850;28;20250;-72
2023/06/22 00:28:59;;;;;;;1.27;0.93;;;18.00;99.90;;;;;;4991026;28;20611;-72
2023/06/22 00:31:25;;;;;;;1.13;1.02;;;18.00;99.90;;;;;;4990338;28;20204;-72
2023/06/22 00:33:51;;;;;;;0.80;0.80;;;18.00;99.90;;;;;;4990879;28;20207;-72
2023/06/22 00:36:17;;;;;;;1.98;1.63;;;18.10;99.90;;;;;;4990909;28;20203;-71
2023/06/22 00:38:43;;;;;;;1.90;1.52;;;18.10;99.90;;;;;;4990739;28;20666;-71
2023/06/22 00:41:09;;;;;;;4.90;1.38;;;18.00;99.90;;;;;;4989369;28;20239;-71
2023/06/22 00:43:35;;;;;;;0.73;0.73;;;18.00;99.90;;;;;;4973159;28;20221;-71
2023/06/22 00:46:01;;;;;;;2.58;1.80;;;17.80;99.90;;;;;;4986453;28;20207;-71
2023/06/22 00:48:27;;;;;;;2.33;1.25;;;17.70;99.90;;;;;;5010023;28;20276;-72
2023/06/22 00:50:55;;;;;;;0.82;0.63;;;17.60;99.90;;;;;;5014198;28;20194;-73
2023/06/22 00:53:21;;;;;;;0.40;0.40;;;17.60;99.90;;;;;;5001866;28;20200;-72
2023/06/22 00:55:47;;;;;;;1.23;1.13;;;17.60;99.90;;;;;;4994573;28;20696;-72
2023/06/22 00:58:13;;;;;;;0.50;0.50;;;17.70;99.90;;;;;;4976796;28;20208;-72
2023/06/22 01:00:41;;;;;;;0.50;0.50;;;17.60;99.90;;;;;;4994274;28;20832;-72
2023/06/22 01:03:12;;;;;;;0.98;0.98;;;17.70;99.90;;;;;;5022553;23;20238;-65
2023/06/22 01:05:40;;;;;;;1.02;0.93;;;17.80;99.90;;;;;;5035059;28;20633;-64
2023/06/22 01:08:43;;;;;;;0.65;0.65;;;17.80;99.90;;;;;;5016537;28;20657;-65
2023/06/22 01:11:18;;;;;;;0.32;0.32;;;17.80;99.90;;;;;;5016651;28;20538;-65
2023/06/22 01:14:02;;;;;;;0.85;0.85;;;17.90;99.90;;;;;;5034600;28;20201;-65
2023/06/22 01:16:30;;;;;;;1.05;0.93;;;18.00;99.90;;;;;;5034107;28;20198;-65
2023/06/22 01:19:00;;;;;;;0.63;0.63;;;18.00;99.90;;;;;;5034591;28;20217;-65
2023/06/22 01:21:29;;;;;;;1.55;1.00;;;18.00;99.90;;;;;;5033971;28;20206;-63
2023/06/22 01:24:32;;;;;;;1.55;1.17;;;18.10;99.90;;;;;;5034181;28;20190;-63
2023/06/22 01:27:11;;;;;;;1.00;0.85;;;18.10;99.90;;;;;;5025217;28;20202;-63
2023/06/22 01:29:38;;;;;;;0.75;0.70;;;18.10;99.90;;;;;;5033756;28;20194;-63
2023/06/22 01:32:05;;;;;;;0.52;0.52;;;18.20;99.90;;;;;;5033956;28;20673;-63
2023/06/22 01:34:33;;;;;;;1.48;0.93;;;18.20;99.90;;;;;;5033232;28;20197;-64
2023/06/22 01:37:00;;;;;;;0.80;0.60;;;18.20;99.90;;;;;;5033523;28;20656;-65
2023/06/22 01:39:28;;;;;;;0.50;0.50;;;18.30;99.90;;;;;;5031687;28;20601;-65
2023/06/22 01:41:54;;;;;;;1.38;0.88;;;18.30;99.90;;;;;;5026913;28;20214;-65
2023/06/22 01:44:21;;;;;;;0.55;0.55;;;18.30;99.90;;;;;;5032918;28;20243;-65
2023/06/22 01:46:49;;;;;;;2.28;1.52;;;18.30;99.90;;;;;;5033195;28;20193;-65
2023/06/22 01:49:15;;;;;;;0.70;0.70;;;18.30;99.90;;;;;;5015282;28;20198;-65
2023/06/22 01:51:40;;;;;;;0.77;0.60;;;18.30;99.90;;;;;;5033023;28;20186;-64
2023/06/22 01:54:08;;;;;;;0.95;0.90;;;18.30;99.90;;;;;;5032674;28;20209;-64
2023/06/22 01:56:34;;;;;;;0.60;0.60;;;18.30;99.90;;;;;;5032983;28;20288;-65
2023/06/22 01:59:11;;;;;;;0.68;0.68;;;18.30;99.90;;;;;;5031511;28;20558;-65
2023/06/22 02:01:47;;;;;;;1.85;1.00;;;18.30;99.90;;;;;;5030703;28;20288;-65
2023/06/22 02:04:26;;;;;;;1.42;1.10;;;18.30;99.90;;;;;;5012991;28;20210;-64
2023/06/22 02:06:56;;;;;;;0.55;0.55;;;18.30;99.90;;;;;;5013172;28;20190;-65
2023/06/22 02:09:23;;;;;;;10.02;0.82;;;18.30;99.90;;;;;;5012907;28;20555;-65
2023/06/22 02:11:54;;;;;;;0.75;0.75;;;18.40;99.90;;;;;;4995617;28;20187;-65
2023/06/22 02:14:24;;;;;;;4.00;1.55;;;18.30;99.90;;;;;;4994941;28;20290;-63
2023/06/22 02:16:58;;;;;;;0.85;0.85;;;18.40;99.90;;;;;;4995317;28;20354;-63
2023/06/22 02:19:25;;;;;;;0.70;0.70;;;18.40;99.90;;;;;;4995031;28;20285;-64
2023/06/22 02:21:51;;;;;;;1.70;0.93;;;18.50;99.90;;;;;;5012703;28;20717;-64
2023/06/22 02:24:17;;;;;;;1.50;1.40;;;18.50;99.90;;;;;;5012477;28;20222;-64
2023/06/22 02:26:54;;;;;;;1.20;1.10;;;18.40;99.90;;;;;;4995009;28;20345;-64
2023/06/22 02:29:27;;;;;;;4.18;1.85;;;18.40;99.90;;;;;;4995074;28;20280;-65
2023/06/22 02:31:54;;;;;;;54.38;1.67;;;18.50;99.90;;;;;;4995034;28;20739;-64
2023/06/22 02:34:22;;;;;;;2.13;1.00;;;18.50;99.90;;;;;;4994571;28;20203;-64
2023/06/22 02:36:51;;;;;;;1.20;1.10;;;18.50;99.90;;;;;;5012523;28;20252;-64
2023/06/22 02:39:24;;;;;;;0.88;0.88;;;18.50;99.90;;;;;;4994657;28;20222;-64
2023/06/22 02:41:54;;;;;;;0.75;0.75;;;18.50;99.90;;;;;;5006222;28;20238;-63
2023/06/22 02:44:20;;;;;;;0.95;0.65;;;18.40;99.90;;;;;;5012049;28;20289;-64
2023/06/22 02:46:52;;;;;;;3.05;0.68;;;18.30;99.90;;;;;;5012379;28;20261;-64
2023/06/22 02:49:18;;;;;;;3.58;1.27;;;18.20;99.90;;;;;;5011943;28;20597;-64
2023/06/22 02:51:48;;;;;;;1.17;1.10;;;18.20;99.90;;;;;;5012167;28;20195;-63
2023/06/22 02:54:14;;;;;;;0.52;0.52;;;18.10;99.90;;;;;;5011602;28;20277;-63
2023/06/22 02:56:40;;;;;;;1.30;0.75;;;18.00;99.90;;;;;;5012265;28;20194;-63
2023/06/22 02:59:10;;;;;;;1.23;0.80;;;18.00;99.90;;;;;;4994427;28;20684;-66
2023/06/22 03:01:42;;;;;;;0.65;0.65;;;18.10;99.90;;;;;;5002724;28;20897;-64
2023/06/22 03:04:19;;;;;;;1.15;0.82;;;18.20;99.90;;;;;;5011544;28;20229;-63
2023/06/22 03:06:55;;;;;;;0.38;0.38;;;18.20;99.90;;;;;;5012223;28;20194;-64
2023/06/22 03:09:20;;;;;;;0.88;0.75;;;18.40;99.90;;;;;;5011687;28;20266;-64
2023/06/22 03:11:46;;;;;;;0.80;0.80;;;18.50;99.90;;;;;;5011733;28;20325;-64
2023/06/22 03:14:12;;;;;;;0.82;0.60;;;18.50;99.90;;;;;;5011735;28;20560;-65
2023/06/22 03:16:37;;;;;;;2.15;1.35;;;18.60;99.90;;;;;;5011545;28;20199;-65
2023/06/22 03:19:03;;;;;;;5.55;1.70;;;18.60;99.90;;;;;;5011820;28;20616;-65
2023/06/22 03:21:29;;;;;;;0.73;0.70;;;18.60;99.90;;;;;;4993805;28;20207;-65
2023/06/22 03:24:11;;;;;;;1.35;1.15;;;18.50;99.90;;;;;;4993791;28;20241;-65
2023/06/22 03:26:55;;;;;;;1.15;1.05;;;18.60;99.90;;;;;;5011264;28;20648;-64
2023/06/22 03:29:27;;;;;;;1.52;1.17;;;18.60;99.90;;;;;;5010045;28;20194;-64
2023/06/22 03:31:52;;;;;;;0.80;0.80;;;18.60;99.90;;;;;;4993947;28;20231;-64
2023/06/22 03:34:21;;;;;;;0.45;0.45;;;18.50;99.90;;;;;;5011231;28;20233;-64
2023/06/22 03:36:46;;;;;;;0.70;0.70;;;18.60;99.90;;;;;;5011471;28;20190;-64
2023/06/22 03:39:12;;;;;;;0.98;0.90;;;18.50;99.90;;;;;;5011497;28;20685;-64
2023/06/22 03:41:38;;;;;;;5.05;1.48;;;18.30;99.90;;;;;;5017446;28;20221;-64
2023/06/22 03:44:04;;;;;;;1.85;0.75;;;18.20;99.90;;;;;;5013136;28;20280;-64
2023/06/22 03:46:30;;;;;;;0.85;0.85;;;18.20;99.90;;;;;;4999123;28;20218;-64
2023/06/22 03:48:56;;;;;;;0.50;0.50;;;18.30;99.90;;;;;;5011156;28;20243;-64
2023/06/22 03:51:22;;;;;;;0.43;0.43;;;18.30;99.90;;;;;;5010660;28;20199;-64
2023/06/22 03:53:48;;;;;;;0.57;0.52;;;18.30;99.90;;;;;;5010897;28;20284;-64
2023/06/22 03:56:20;;;;;;;0.60;0.60;;;18.40;99.90;;;;;;5011039;28;20202;-64
2023/06/22 03:58:45;;;;;;;0.85;0.85;;;18.50;99.90;;;;;;5011028;28;20194;-64
2023/06/22 04:01:11;;;;;;;0.65;0.65;;;18.50;99.90;;;;;;5010861;28;20210;-64
2023/06/22 04:03:38;;;;;;;0.50;0.50;;;18.70;99.90;;;;;;5019008;28;20226;-65
2023/06/22 04:06:04;;;;;;;0.80;0.80;;;18.70;99.90;;;;;;5030385;28;20198;-64
2023/06/22 04:08:30;;;;;;;0.40;0.40;;;18.90;99.90;;;;;;5030478;28;20198;-64
2023/06/22 04:10:56;;;;;;;0.35;0.35;;;19.00;99.90;;;;;;5030730;28;20820;-64
2023/06/22 04:13:22;;;;;;;2.50;1.35;;;19.00;99.90;;;;;;5030168;28;20194;-64
2023/06/22 04:15:47;;;;;;;0.32;0.32;;;19.00;99.90;;;;;;5030386;28;20701;-64
2023/06/22 04:18:16;;;;;;;0.95;0.95;;;19.00;99.90;;;;;;5030513;28;20233;-64
2023/06/22 04:20:41;;;;;;;0.55;0.55;;;19.00;99.90;;;;;;5030053;28;20233;-64
2023/06/22 04:23:07;;;;;;;0.82;0.70;;;19.10;99.90;;;;;;5030410;28;20224;-64
2023/06/22 04:25:33;;;;;;;0.60;0.60;;;19.10;99.90;;;;;;5029872;28;20669;-64
2023/06/22 04:28:12;;;;;;;0.40;0.40;;;19.20;99.90;;;;;;5030334;28;20562;-65
2023/06/22 04:30:46;;;;;;;0.68;0.68;;;19.40;99.90;;;;;;5030222;28;20198;-65
2023/06/22 04:33:15;;;;;;;0.60;0.55;;;19.40;99.90;;;;;;5012503;28;20271;-64
2023/06/22 04:35:44;;;;;;;0.77;0.77;;;19.50;99.90;;;;;;5030185;28;20229;-64
2023/06/22 04:38:13;;;;;;;0.77;0.77;;;19.50;99.90;;;;;;5026305;28;20210;-64
2023/06/22 04:40:39;;;;;;;0.45;0.45;;;19.50;99.90;;;;;;5029916;28;20564;-64
2023/06/22 04:43:06;;;;;;;1.85;0.93;;;19.40;99.90;;;;;;5030053;28;20198;-64
2023/06/22 04:45:32;;;;;;;1.15;0.80;;;19.50;99.90;;;;;;5029735;28;20199;-64
2023/06/22 04:47:58;;;;;;;1.45;0.90;;;19.60;99.90;;;;;;5029922;28;20201;-64
2023/06/22 04:50:24;;;;;;;0.75;0.75;;;19.70;99.90;;;;;;5030059;28;20673;-64
2023/06/22 04:52:50;;;;;;;0.38;0.38;;;19.50;99.90;;;;;;5016541;28;20214;-64
2023/06/22 04:55:18;;;;;;;0.52;0.52;;;19.20;99.90;;;;;;5029931;28;20198;-64
2023/06/22 04:57:50;;;;;;;0.57;0.57;;;19.30;99.90;;;;;;5028759;28;20728;-64
2023/06/22 05:00:18;;;;;;;0.40;0.40;;;19.40;99.90;;;;;;5030164;28;20661;-64
2023/06/22 05:02:45;;;;;;;0.63;0.57;;;19.50;99.90;;;;;;5029650;28;20250;-64
2023/06/22 05:05:15;;;;;;;0.55;0.55;;;19.80;99.90;;;;;;5030130;28;20641;-64
2023/06/22 05:07:48;;;;;;;1.13;0.63;;;19.90;99.90;;;;;;5029889;28;20305;-64
2023/06/22 05:10:14;;;;;;;0.43;0.43;;;20.10;99.90;;;;;;5029923;28;20194;-64
2023/06/22 05:12:41;;;;;;;1.40;0.80;;;20.10;99.90;;;;;;5029626;28;20564;-64
2023/06/22 05:15:10;;;;;;;1.17;1.08;;;20.20;99.90;;;;;;5030038;28;20184;-64
2023/06/22 05:17:42;;;;;;;1.13;0.82;;;20.40;99.90;;;;;;5029855;28;20190;-64
2023/06/22 05:20:09;;;;;;;9.25;0.68;;;20.10;99.90;;;;;;5030034;28;20197;-64
2023/06/22 05:22:35;;;;;;;0.80;0.80;;;20.20;99.90;;;;;;5011708;28;20621;-64
2023/06/22 05:25:01;;;;;;;1.20;0.75;;;20.30;99.90;;;;;;5029932;28;20186;-64
2023/06/22 05:27:26;;;;;;;0.40;0.40;;;20.20;99.90;;;;;;5028453;28;20252;-64
2023/06/22 05:29:52;;;;;;;0.73;0.68;;;20.30;99.90;;;;;;5030162;28;20194;-64
2023/06/22 05:32:18;;;;;;;0.63;0.63;;;20.10;99.90;;;;;;5029945;28;20186;-64
2023/06/22 05:34:44;;;;;;;0.45;0.45;;;19.90;99.90;;;;;;5027977;28;20205;-63
2023/06/22 05:37:10;;;;;;;0.50;0.50;;;19.80;99.90;;;;;;5032394;28;20657;-66
2023/06/22 05:39:39;;;;;;;0.52;0.52;;;19.80;99.90;;;;;;5032982;28;20271;-64
2023/06/22 05:42:06;;;;;;;0.50;0.50;;;19.80;99.90;;;;;;5032887;28;20202;-65
2023/06/22 05:44:33;;;;;;;0.32;0.32;;;20.00;99.90;;;;;;5032924;28;20186;-63
2023/06/22 05:46:59;;;;;;;0.32;0.32;;;20.10;99.90;;;;;;4999363;28;20232;-63
2023/06/22 05:49:29;;;;;;;1.30;0.95;;;20.30;99.90;;;;;;5032973;28;20279;-64
2023/06/22 05:51:55;;;;;;;0.30;0.30;;;20.50;99.90;;;;;;5015884;28;20202;-64
2023/06/22 05:54:21;;;;;;;0.20;0.20;;;20.50;99.90;;;;;;5033075;28;20198;-64
2023/06/22 05:56:46;;;;;;;0.70;0.70;;;20.50;99.90;;;;;;5033241;28;20719;-64
2023/06/22 05:59:12;;;;;;;0.50;0.50;;;20.30;99.90;;;;;;5033047;28;20210;-64
2023/06/22 06:01:39;;;;;;;0.30;0.30;;;20.40;99.90;;;;;;5024919;28;20222;-63
2023/06/22 06:04:07;;;;;;;1.55;0.50;;;20.40;99.90;;;;;;5011445;28;20234;-64
2023/06/22 06:06:34;;;;;;;0.30;0.30;;;20.50;99.90;;;;;;5012915;28;20209;-64
2023/06/22 06:09:00;;;;;;;0.50;0.50;;;20.30;99.90;;;;;;5028645;28;20190;-64
2023/06/22 06:11:26;;;;;;;1.02;0.73;;;20.40;99.90;;;;;;5032593;28;20190;-63
2023/06/22 06:13:52;;;;;;;0.40;0.40;;;20.40;99.90;;;;;;5032801;28;20205;-64
2023/06/22 06:16:18;;;;;;;0.80;0.65;;;20.40;99.90;;;;;;5032377;28;20788;-64
2023/06/22 06:18:44;;;;;;;0.20;0.20;;;20.40;99.90;;;;;;5032667;28;20194;-64
2023/06/22 06:21:09;;;;;;;0.70;0.70;;;20.30;99.90;;;;;;5031295;28;20222;-64
2023/06/22 06:23:35;;;;;;;0.40;0.40;;;20.40;99.90;;;;;;5032193;28;20190;-64
2023/06/22 06:26:01;;;;;;;0.38;0.38;;;20.20;99.90;;;;;;5014783;28;20222;-63
2023/06/22 06:28:27;;;;;;;0.38;0.38;;;20.40;99.90;;;;;;5032500;28;20280;-64
2023/06/22 06:30:53;;;;;;;0.38;0.38;;;20.60;99.90;;;;;;5021775;28;20764;-63
2023/06/22 06:33:20;;;;;;;1.00;0.52;;;20.80;99.90;;;;;;5012374;28;20669;-64
2023/06/22 06:35:46;;;;;;;1.88;1.17;;;21.20;99.90;;;;;;5012559;28;20205;-63
2023/06/22 06:38:12;;;;;;;0.52;0.47;;;21.30;99.90;;;;;;4994747;28;20195;-64
2023/06/22 06:40:38;;;;;;;0.45;0.45;;;21.40;99.90;;;;;;4994730;28;20218;-63
2023/06/22 06:43:03;;;;;;;0.40;0.40;;;21.30;99.90;;;;;;5012468;28;20225;-63
2023/06/22 06:45:32;;;;;;;0.30;0.30;;;21.30;99.90;;;;;;4994484;28;20207;-63
2023/06/22 06:47:58;;;;;;;0.55;0.55;;;21.50;99.90;;;;;;4994157;28;20191;-63
2023/06/22 06:50:24;;;;;;;0.20;0.20;;;21.50;99.90;;;;;;5012202;28;20205;-64
2023/06/22 06:52:50;;;;;;;0.22;0.22;;;21.70;99.90;;;;;;5012042;28;20191;-63
2023/06/22 06:55:16;;;;;;;0.60;0.60;;;21.70;99.90;;;;;;5011953;28;20210;-63
2023/06/22 06:57:42;;;;;;;1.17;0.80;;;21.70;99.90;;;;;;5012016;28;20191;-63
2023/06/22 07:00:13;;;;;;;0.30;0.30;;;21.80;99.90;;;;;;5012084;28;20191;-63
2023/06/22 07:02:41;;;;;;;0.65;0.60;;;21.90;99.90;;;;;;5011571;28;20239;-63
2023/06/22 07:05:07;;;;;;;0.47;0.47;;;22.00;99.90;;;;;;5011908;28;20198;-63
2023/06/22 07:07:33;;;;;;;0.40;0.40;;;21.80;99.90;;;;;;5011786;28;20213;-64
2023/06/22 07:09:59;;;;;;;1.75;0.93;;;21.80;99.90;;;;;;5011971;28;20658;-63
2023/06/22 07:12:25;;;;;;;0.60;0.60;;;21.70;99.90;;;;;;5011666;28;20197;-63
2023/06/22 07:14:52;;;;;;;0.50;0.50;;;21.90;99.90;;;;;;5011890;28;20207;-63
2023/06/22 07:17:18;;;;;;;0.80;0.80;;;22.00;99.90;;;;;;5011676;28;20692;-66
2023/06/22 07:19:44;;;;;;;0.50;0.50;;;21.90;99.90;;;;;;5011738;28;20199;-65
2023/06/22 07:22:22;;;;;;;0.28;0.28;;;21.90;99.90;;;;;;5011656;28;20206;-64
2023/06/22 07:24:49;;;;;;;0.20;0.20;;;22.00;99.90;;;;;;5011643;28;20265;-64
2023/06/22 07:27:18;;;;;;;0.47;0.47;;;21.90;99.90;;;;;;5023046;28;20197;-64
2023/06/22 07:29:44;;;;;;;0.73;0.50;;;21.90;99.90;;;;;;5031317;28;20373;-64
2023/06/22 07:32:09;;;;;;;0.22;0.22;;;22.00;99.90;;;;;;5011886;28;20293;-64
2023/06/22 07:34:35;;;;;;;0.30;0.30;;;22.20;99.90;;;;;;4993499;28;20206;-64
2023/06/22 07:37:01;;;;;;;0.20;0.20;;;22.30;99.90;;;;;;4993852;28;20748;-64
2023/06/22 07:39:28;;;;;;;0.52;0.40;;;22.20;99.90;;;;;;5011443;28;20256;-64
2023/06/22 07:41:54;;;;;;;0.30;0.30;;;22.30;99.90;;;;;;5011353;28;20225;-64
2023/06/22 07:44:19;;;;;;;0.40;0.40;;;22.30;99.90;;;;;;5011022;28;20191;-65
2023/06/22 07:46:45;;;;;;;0.57;0.57;;;22.70;99.90;;;;;;5011243;28;20194;-64
2023/06/22 07:49:12;;;;;;;0.40;0.40;;;22.90;99.90;;;;;;5011353;28;20198;-64
2023/06/22 07:51:38;;;;;;;0.22;0.22;;;22.90;99.90;;;;;;5011007;28;20195;-64
2023/06/22 07:54:03;;;;;;;1.13;1.00;;;22.90;99.90;;;;;;5003336;28;20212;-64
2023/06/22 07:56:29;;;;;;;0.57;0.50;;;22.90;99.90;;;;;;4991258;28;20200;-64
2023/06/22 07:58:58;;;;;;;0.20;0.20;;;23.20;99.90;;;;;;4991316;28;20203;-64
2023/06/22 08:01:26;;;;;;;0.47;0.43;;;23.50;99.90;;;;;;5005466;28;20217;-65
2023/06/22 08:03:51;;;;;;;0.25;0.25;;;23.60;99.90;;;;;;5021374;28;20759;-65
2023/06/22 08:06:20;;;;;;;0.30;0.30;;;23.80;99.90;;;;;;5030707;28;20194;-65
2023/06/22 08:08:48;;;;;;;0.52;0.52;;;23.80;99.90;;;;;;5030570;28;20273;-65
2023/06/22 08:11:14;;;;;;;0.20;0.20;;;23.50;99.90;;;;;;5030752;28;20724;-64
2023/06/22 08:13:39;;;;;;;0.50;0.50;;;23.60;99.90;;;;;;5029163;28;20210;-65
2023/06/22 08:16:05;;;;;;;0.43;0.40;;;23.70;99.90;;;;;;5030578;28;20205;-65
2023/06/22 08:18:31;;;;;;;0.43;0.43;;;23.80;99.90;;;;;;5028148;28;20277;-65
2023/06/22 08:20:57;;;;;;;0.80;0.40;;;24.20;99.90;;;;;;5010951;28;20222;-65
2023/06/22 08:23:22;;;;;;;0.38;0.38;;;24.50;99.90;;;;;;4992687;28;20207;-65
2023/06/22 08:25:50;;;;;;;0.35;0.35;;;24.70;99.90;;;;;;5010638;28;20198;-64
2023/06/22 08:28:15;;;;;;;1.00;0.70;;;25.00;99.90;;;;;;5010631;28;20187;-65
2023/06/22 08:30:41;;;;;;;0.13;0.13;;;24.80;99.90;;;;;;5010320;28;20206;-65
2023/06/22 08:33:07;;;;;;;0.35;0.35;;;24.80;99.90;;;;;;5010374;28;20194;-64
2023/06/22 08:35:33;;;;;;;0.52;0.28;;;24.90;99.90;;;;;;5010384;28;20198;-64
2023/06/22 08:37:59;;;;;;;0.40;0.40;;;24.90;99.90;;;;;;5010497;28;20191;-64
2023/06/22 08:40:34;;;;;;;0.30;0.30;;;24.70;99.90;;;;;;5010102;28;20781;-64
2023/06/22 08:43:00;;;;;;;0.25;0.25;;;25.00;99.90;;;;;;5002827;28;20190;-64
2023/06/22 08:45:25;;;;;;;0.20;0.20;;;25.00;99.90;;;;;;5010416;28;20724;-64
2023/06/22 08:47:51;;;;;;;0.40;0.40;;;25.20;99.90;;;;;;5010407;28;20194;-64
2023/06/22 08:50:17;;;;;;;0.35;0.32;;;25.10;99.90;;;;;;5010425;28;20202;-65
2023/06/22 08:52:43;;;;;;;0.43;0.35;;;25.10;99.90;;;;;;5010454;28;20199;-65
2023/06/22 08:55:09;;;;;;;0.40;0.40;;;25.00;99.90;;;;;;5010468;28;20662;-64
2023/06/22 08:57:37;;;;;;;1.85;0.40;;;25.10;99.90;;;;;;5018800;28;20671;-64
2023/06/22 09:00:05;;;;;;;0.15;0.15;;;25.00;99.90;;;;;;5030236;28;20707;-64
2023/06/22 09:02:31;;;;;;;1.85;0.57;;;25.10;99.90;;;;;;5029148;28;20697;-64
2023/06/22 09:04:57;;;;;;;0.77;0.50;;;25.10;99.90;;;;;;5012298;28;20205;-64
2023/06/22 09:07:24;;;;;;;0.20;0.20;;;25.20;99.90;;;;;;5029893;28;20190;-64
2023/06/22 09:09:50;;;;;;;0.30;0.30;;;25.40;99.90;;;;;;5030442;28;20676;-64
2023/06/22 09:12:17;;;;;;;0.82;0.25;;;25.70;99.90;;;;;;5033832;28;20277;-64
2023/06/22 09:14:43;;;;;;;0.50;0.50;;;25.30;99.90;;;;;;5033871;28;20653;-65
2023/06/22 09:17:08;;;;;;;0.10;0.10;;;25.30;99.90;;;;;;5033625;28;20211;-64
2023/06/22 09:19:34;;;;;;;0.43;0.43;;;25.60;99.90;;;;;;5023029;28;20221;-65
2023/06/22 09:22:00;;;;;;;18.60;0.70;;;25.80;99.90;;;;;;5013902;28;20670;-65
2023/06/22 09:24:26;;;;;;;0.63;0.20;;;26.10;99.90;;;;;;5013469;28;20195;-65
2023/06/22 09:26:52;;;;;;;0.25;0.25;;;26.30;99.90;;;;;;5013614;28;20179;-64
2023/06/22 09:29:18;;;;;;;1.85;0.45;;;26.50;99.90;;;;;;5013711;28;20191;-64
2023/06/22 09:31:44;;;;;;;0.43;0.43;;;26.40;99.90;;;;;;5013684;28;20194;-64
2023/06/22 09:34:09;;;;;;;0.30;0.30;;;26.30;99.90;;;;;;4995921;28;20195;-64
2023/06/22 09:36:36;;;;;;;0.45;0.30;;;26.50;99.90;;;;;;5013541;28;20214;-65
2023/06/22 09:39:05;;;;;;;0.40;0.40;;;26.40;99.90;;;;;;5013617;28;20199;-64
2023/06/22 09:41:31;;;;;;;0.40;0.40;;;26.10;99.90;;;;;;5013478;28;20607;-64
2023/06/22 09:43:57;;;;;;;0.45;0.45;;;25.70;99.90;;;;;;5013482;28;20191;-66
2023/06/22 09:46:25;;;;;;;0.30;0.30;;;25.80;99.90;;;;;;4995505;28;20246;-66
2023/06/22 09:48:51;;;;;;;0.20;0.20;;;26.30;99.90;;;;;;5013369;28;20187;-65
2023/06/22 09:51:18;;;;;;;0.30;0.30;;;26.40;99.90;;;;;;5013248;28;20198;-66
2023/06/22 09:53:44;;;;;;;2.05;0.75;;;26.70;99.90;;;;;;4995415;28;20214;-65
2023/06/22 09:56:14;;;;;;;0.40;0.40;;;26.50;99.90;;;;;;5013129;28;20325;-65
2023/06/22 09:58:44;;;;;;;0.68;0.43;;;26.50;99.90;;;;;;5013089;28;20197;-65
2023/06/22 10:01:10;;;;;;;0.20;0.20;;;26.70;99.90;;;;;;5013084;28;20609;-65
2023/06/22 10:03:37;;;;;;;0.20;0.20;;;26.80;99.90;;;;;;5012939;28;20234;-66
2023/06/22 10:06:03;;;;;;;0.40;0.40;;;27.10;99.90;;;;;;5013759;28;20198;-66
2023/06/22 10:08:29;;;;;;;0.90;0.47;;;27.40;99.90;;;;;;5012909;28;20193;-66
2023/06/22 10:10:55;;;;;;;0.25;0.17;;;27.60;99.90;;;;;;5012918;28;20289;-66
2023/06/22 10:13:20;;;;;;;0.30;0.30;;;27.70;99.90;;;;;;5012765;28;20207;-66
2023/06/22 10:15:51;;;;;;;0.82;0.50;;;27.50;99.90;;;;;;5022502;28;20259;-66
2023/06/22 10:18:17;;;;;;;0.15;0.15;;;27.50;99.90;;;;;;5014686;28;20223;-66
2023/06/22 10:20:43;;;;;;;0.30;0.30;;;27.60;99.90;;;;;;5014758;28;20202;-65
2023/06/22 10:23:08;;;;;;;0.20;0.20;;;27.70;99.90;;;;;;5011792;28;20191;-66
2023/06/22 10:25:34;;;;;;;0.32;0.32;;;27.90;99.00;;;;;;5012251;28;20183;-66
2023/06/22 10:28:00;;;;;;;0.20;0.20;;;27.70;99.90;;;;;;5012560;28;20186;-66
2023/06/22 10:30:26;;;;;;;0.22;0.22;;;28.00;99.90;;;;;;5012515;28;20270;-66
2023/06/22 10:32:51;;;;;;;0.20;0.20;;;28.00;98.50;;;;;;5012387;28;20198;-66
2023/06/22 10:35:17;;;;;;;0.20;0.20;;;27.80;98.70;;;;;;5012428;28;20194;-66
2023/06/22 10:37:44;;;;;;;1.95;0.45;;;27.90;99.90;;;;;;5012245;28;20588;-66
2023/06/22 10:40:12;;;;;;;0.30;0.30;;;28.00;99.90;;;;;;5012301;28;20190;-66
2023/06/22 10:42:38;;;;;;;0.22;0.20;;;28.20;99.90;;;;;;5011968;28;20206;-66
2023/06/22 10:45:04;;;;;;;0.45;0.35;;;28.30;99.80;;;;;;5012297;28;20197;-66
2023/06/22 10:47:30;;;;;;;0.10;0.10;;;28.10;97.20;;;;;;4994572;28;20225;-66
2023/06/22 10:49:56;;;;;;;0.25;0.25;;;28.40;97.10;;;;;;5012320;28;20838;-66
2023/06/22 10:52:22;;;;;;;0.65;0.28;;;29.00;98.90;;;;;;4994155;28;20194;-66
2023/06/22 10:54:47;;;;;;;0.38;0.35;;;29.20;97.30;;;;;;5012164;28;20245;-66
2023/06/22 10:57:13;;;;;;;0.40;0.35;;;29.10;96.60;;;;;;5012061;28;20205;-66
2023/06/22 10:59:39;;;;;;;0.20;0.20;;;29.00;95.60;;;;;;4994247;28;20209;-66
2023/06/22 11:02:05;;;;;;;0.28;0.25;;;28.80;97.30;;;;;;5011590;28;20226;-66
2023/06/22 11:04:31;;;;;;;0.38;0.30;;;29.00;95.40;;;;;;5027642;28;20204;-66
2023/06/22 11:06:57;;;;;;;0.10;0.10;;;28.80;95.90;;;;;;5031842;28;20623;-66
2023/06/22 11:09:22;;;;;;;0.08;0.08;;;29.10;95.90;;;;;;5031399;28;20185;-66
2023/06/22 11:11:54;;;;;;;0.20;0.20;;;29.40;95.20;;;;;;5033375;28;20212;-66
2023/06/22 11:14:22;;;;;;;0.90;0.35;;;29.80;95.80;;;;;;5051210;28;20197;-66
2023/06/22 11:16:48;;;;;;;0.10;0.10;;;29.90;94.00;;;;;;5034897;28;20711;-66
2023/06/22 11:19:14;;;;;;;0.63;0.20;;;29.90;93.30;;;;;;5013614;28;20197;-66
2023/06/22 11:21:40;;;;;;;0.15;0.15;;;29.70;94.70;;;;;;5013147;28;20243;-66
2023/06/22 11:24:06;;;;;;;0.10;0.10;;;29.60;93.00;;;;;;5031296;28;20186;-66
2023/06/22 11:26:32;;;;;;;0.08;0.08;;;29.40;94.50;;;;;;5031023;28;20202;-66
2023/06/22 11:28:58;;;;;;;0.63;0.63;;;29.10;93.20;;;;;;5029968;28;20251;-65
2023/06/22 11:31:24;;;;;;;0.15;0.15;;;29.40;93.10;;;;;;5031295;28;20201;-66
2023/06/22 11:33:50;;;;;;;3.30;0.43;;;29.70;95.00;;;;;;5031095;28;20273;-66
2023/06/22 11:36:16;;;;;;;0.10;0.10;;;29.90;93.60;;;;;;5031018;28;20201;-66
2023/06/22 11:38:42;;;;;;;0.13;0.13;;;29.60;92.20;;;;;;5031080;28;20217;-65
2023/06/22 11:41:09;;;;;;;0.10;0.10;;;29.10;92.20;;;;;;5029685;28;20731;-66
2023/06/22 11:43:36;;;;;;;0.50;0.50;;;29.50;93.30;;;;;;5030630;28;20735;-65
2023/06/22 11:46:04;;;;;;;0.28;0.28;;;29.80;93.20;;;;;;5030654;28;20194;-66
2023/06/22 11:48:30;;;;;;;0.60;0.35;;;30.30;93.50;;;;;;5013052;28;20861;-66
2023/06/22 11:50:56;;;;;;;0.10;0.10;;;30.30;92.20;;;;;;5012982;28;20669;-65
2023/06/22 11:53:25;;;;;;;0.20;0.20;;;29.80;91.40;;;;;;5025051;28;20247;-66
2023/06/22 11:55:52;;;;;;;0.20;0.20;;;29.40;92.60;;;;;;5030725;28;20189;-65
2023/06/22 11:58:18;;;;;;;0.10;0.10;;;29.50;93.50;;;;;;5030551;28;20209;-65
2023/06/22 12:00:45;;;;;;;0.22;0.22;;;30.00;93.50;;;;;;5030637;28;20233;-65
2023/06/22 12:03:11;;;;;;;0.10;0.10;;;29.90;90.90;;;;;;5026722;28;20700;-65
2023/06/22 12:05:39;;;;;;;0.65;0.55;;;29.90;93.20;;;;;;5030722;28;20759;-65
2023/06/22 12:08:04;;;;;;;0.32;0.32;;;29.90;91.30;;;;;;5038602;28;20287;-65
2023/06/22 12:10:30;;;;;;;0.10;0.10;;;29.70;93.10;;;;;;5050363;28;20185;-66
2023/06/22 12:12:57;;;;;;;0.28;0.20;;;29.70;91.70;;;;;;5034916;28;20656;-65
2023/06/22 12:15:23;;;;;;;0.20;0.20;;;29.50;91.80;;;;;;5030354;28;20192;-66
2023/06/22 12:17:49;;;;;;;0.40;0.40;;;29.60;93.40;;;;;;5030288;28;20197;-66
2023/06/22 12:20:15;;;;;;;0.20;0.20;;;29.50;92.90;;;;;;5012570;28;20225;-66
2023/06/22 12:22:41;;;;;;;0.75;0.40;;;29.60;92.00;;;;;;5030319;28;20715;-66
2023/06/22 12:25:10;;;;;;;5.47;1.00;;;29.20;92.10;;;;;;5030452;28;20186;-66
2023/06/22 12:27:37;;;;;;;0.32;0.17;;;29.30;91.90;;;;;;5030202;28;20201;-66
2023/06/22 12:30:03;;;;;;;0.20;0.20;;;29.40;92.10;;;;;;5012667;28;20242;-66
2023/06/22 12:32:30;;;;;;;0.10;0.10;;;29.20;92.60;;;;;;5029975;28;20252;-66
2023/06/22 12:34:56;;;;;;;0.22;0.22;;;29.40;93.20;;;;;;5030343;28;20193;-66
2023/06/22 12:37:21;;;;;;;0.25;0.20;;;30.00;92.50;;;;;;5030227;28;20605;-66
2023/06/22 12:39:47;;;;;;;0.30;0.30;;;30.50;90.90;;;;;;5012530;28;20205;-66
2023/06/22 12:42:13;;;;;;;0.10;0.10;;;30.80;92.30;;;;;;5029824;28;20220;-66
2023/06/22 12:44:39;;;;;;;0.10;0.10;;;30.60;90.90;;;;;;5012413;28;20340;-66
2023/06/22 12:47:06;;;;;;;0.55;0.40;;;30.70;90.30;;;;;;5034357;28;20564;-66